createdAt,value
2017-12-15T00:00:09.341Z,28.36
2017-12-15T00:01:09.316Z,27.97
2017-12-15T00:02:09.304Z,28.16
2017-12-15T00:03:09.266Z,28.26
2017-12-15T00:04:09.267Z,28.07
2017-12-15T00:05:09.234Z,28.75
2017-12-15T00:06:09.199Z,28.65
2017-12-15T00:07:09.174Z,28.45
2017-12-15T00:08:09.149Z,28.55
2017-12-15T00:09:09.139Z,28.85
2017-12-15T00:10:09.120Z,29.72
2017-12-15T00:11:09.099Z,29.42
2017-12-15T00:12:09.070Z,29.32
2017-12-15T00:13:09.054Z,29.42
2017-12-15T00:14:09.048Z,29.42
2017-12-15T00:15:09.012Z,29.52
2017-12-15T00:16:08.986Z,29.61
2017-12-15T00:17:08.982Z,29.03
2017-12-15T00:18:08.945Z,28.74
2017-12-15T00:19:08.917Z,29.03
2017-12-15T00:20:08.897Z,29.61
2017-12-15T00:21:08.885Z,29.42
2017-12-15T00:22:08.866Z,28.54
2017-12-15T00:23:08.834Z,29.03
2017-12-15T00:24:08.833Z,28.44
2017-12-15T00:25:08.781Z,28.74
2017-12-15T00:26:08.763Z,28.74
2017-12-15T00:27:08.815Z,28.54
2017-12-15T00:28:08.721Z,28.93
2017-12-15T00:29:08.709Z,29.03
2017-12-15T00:30:08.684Z,28.83
2017-12-15T00:31:08.659Z,28.83
2017-12-15T00:32:08.631Z,28.44
2017-12-15T00:33:08.631Z,28.64
2017-12-15T00:34:08.591Z,29.30
2017-12-15T00:35:08.581Z,29.02
2017-12-15T00:36:08.540Z,29.60
2017-12-15T00:37:08.532Z,29.11
2017-12-15T00:38:08.508Z,28.82
2017-12-15T00:39:08.462Z,29.40
2017-12-15T00:40:08.511Z,29.91
2017-12-15T00:41:08.439Z,28.82
2017-12-15T00:42:08.418Z,29.42
2017-12-15T00:43:08.416Z,29.69
2017-12-15T00:44:08.375Z,30.87
2017-12-15T00:45:08.365Z,30.18
2017-12-15T00:46:08.339Z,29.50
2017-12-15T00:47:08.305Z,30.08
2017-12-15T00:48:08.290Z,30.08
2017-12-15T00:49:08.269Z,30.08
2017-12-15T00:50:08.258Z,29.79
2017-12-15T00:51:08.222Z,29.89
2017-12-15T00:52:08.224Z,30.18
2017-12-15T00:53:08.168Z,29.89
2017-12-15T00:54:08.151Z,29.89
2017-12-15T00:55:08.127Z,29.89
2017-12-15T00:56:08.111Z,30.28
2017-12-15T00:57:08.102Z,30.18
2017-12-15T00:58:08.607Z,30.18
2017-12-15T00:59:08.061Z,29.88
2017-12-15T01:00:08.012Z,29.97
2017-12-15T01:01:08.014Z,30.36
2017-12-15T01:02:07.995Z,29.78
2017-12-15T01:03:07.949Z,30.75
2017-12-15T01:04:07.966Z,30.46
2017-12-15T01:05:07.911Z,29.78
2017-12-15T01:06:07.896Z,29.78
2017-12-15T01:07:07.864Z,30.26
2017-12-15T01:08:07.839Z,31.53
2017-12-15T01:09:07.821Z,30.36
2017-12-15T01:10:07.794Z,30.85
2017-12-15T01:11:07.787Z,30.36
2017-12-15T01:12:07.774Z,31.24
2017-12-15T01:13:07.727Z,30.26
2017-12-15T01:14:07.707Z,30.75
2017-12-15T01:15:07.686Z,30.55
2017-12-15T01:16:07.667Z,31.14
2017-12-15T01:17:07.637Z,30.55
2017-12-15T01:18:07.630Z,29.97
2017-12-15T01:19:07.599Z,30.17
2017-12-15T01:20:07.572Z,30.75
2017-12-15T01:21:07.558Z,32.00
2017-12-15T01:22:07.530Z,32.00
2017-12-15T01:23:07.509Z,31.71
2017-12-15T01:24:07.479Z,31.41
2017-12-15T01:25:07.467Z,31.71
2017-12-15T01:26:07.458Z,30.93
2017-12-15T01:27:07.430Z,31.71
2017-12-15T01:28:07.412Z,32.00
2017-12-15T01:29:07.363Z,32.20
2017-12-15T01:30:07.351Z,32.20
2017-12-15T01:31:07.331Z,31.81
2017-12-15T01:32:07.317Z,31.41
2017-12-15T01:33:07.299Z,30.93
2017-12-15T01:34:07.252Z,31.22
2017-12-15T01:35:07.239Z,31.71
2017-12-15T01:36:08.115Z,31.41
2017-12-15T01:37:07.182Z,31.41
2017-12-15T01:38:07.170Z,31.81
2017-12-15T01:39:07.159Z,31.51
2017-12-15T01:40:07.175Z,31.81
2017-12-15T01:41:07.102Z,32.18
2017-12-15T01:42:07.071Z,32.78
2017-12-15T01:43:07.059Z,32.00
2017-12-15T01:44:07.035Z,32.08
2017-12-15T01:45:07.005Z,31.61
2017-12-15T01:46:07.027Z,31.32
2017-12-15T01:47:06.964Z,31.70
2017-12-15T01:48:06.947Z,31.71
2017-12-15T01:49:07.914Z,31.50
2017-12-15T01:50:06.919Z,32.28
2017-12-15T01:51:06.883Z,32.67
2017-12-15T01:52:06.853Z,32.37
2017-12-15T01:53:06.840Z,32.76
2017-12-15T01:54:06.811Z,32.57
2017-12-15T01:55:06.791Z,32.18
2017-12-15T01:56:06.764Z,31.79
2017-12-15T01:57:06.735Z,31.88
2017-12-15T01:58:06.719Z,32.28
2017-12-15T01:59:06.709Z,31.88
2017-12-15T02:00:06.692Z,32.47
2017-12-15T02:01:06.651Z,31.79
2017-12-15T02:02:06.621Z,31.88
2017-12-15T02:03:06.601Z,32.17
2017-12-15T02:04:06.599Z,31.87
2017-12-15T02:05:06.550Z,32.55
2017-12-15T02:06:06.548Z,32.07
2017-12-15T02:07:06.521Z,33.04
2017-12-15T02:08:06.517Z,32.55
2017-12-15T02:09:06.486Z,32.94
2017-12-15T02:10:06.456Z,32.75
2017-12-15T02:11:06.420Z,32.45
2017-12-15T02:12:06.400Z,32.26
2017-12-15T02:13:06.395Z,32.65
2017-12-15T02:14:06.365Z,32.65
2017-12-15T02:15:06.340Z,33.23
2017-12-15T02:16:06.327Z,33.33
2017-12-15T02:17:06.294Z,32.55
2017-12-15T02:18:06.272Z,33.23
2017-12-15T02:19:06.237Z,33.53
2017-12-15T02:20:06.228Z,33.31
2017-12-15T02:21:06.195Z,33.33
2017-12-15T02:22:06.182Z,33.61
2017-12-15T02:23:07.134Z,33.41
2017-12-15T02:24:06.136Z,33.80
2017-12-15T02:25:06.097Z,33.12
2017-12-15T02:26:06.082Z,33.22
2017-12-15T02:27:06.045Z,33.41
2017-12-15T02:28:06.038Z,33.41
2017-12-15T02:29:06.627Z,33.61
2017-12-15T02:30:05.998Z,33.22
2017-12-15T02:31:05.990Z,33.22
2017-12-15T02:32:05.950Z,33.22
2017-12-15T02:33:05.905Z,33.70
2017-12-15T02:34:05.913Z,33.99
2017-12-15T02:35:05.874Z,33.11
2017-12-15T02:36:05.842Z,33.70
2017-12-15T02:37:05.817Z,33.69
2017-12-15T02:38:05.802Z,33.69
2017-12-15T02:39:05.797Z,33.59
2017-12-15T02:40:05.772Z,33.69
2017-12-15T02:41:05.733Z,33.59
2017-12-15T02:42:05.721Z,33.69
2017-12-15T02:43:05.690Z,34.27
2017-12-15T02:44:05.661Z,33.98
2017-12-15T02:45:05.650Z,33.49
2017-12-15T02:46:05.613Z,34.36
2017-12-15T02:47:05.604Z,34.08
2017-12-15T02:48:05.582Z,33.98
2017-12-15T02:49:05.559Z,33.88
2017-12-15T02:50:05.539Z,33.69
2017-12-15T02:51:05.508Z,33.98
2017-12-15T02:52:05.480Z,34.17
2017-12-15T02:53:05.452Z,34.08
2017-12-15T02:54:05.428Z,34.17
2017-12-15T02:55:05.415Z,34.36
2017-12-15T02:56:05.379Z,34.17
2017-12-15T02:57:05.361Z,34.64
2017-12-15T02:58:05.331Z,34.75
2017-12-15T02:59:05.309Z,34.25
2017-12-15T03:00:05.284Z,34.85
2017-12-15T03:01:05.275Z,34.64
2017-12-15T03:02:05.239Z,35.03
2017-12-15T03:03:05.213Z,34.44
2017-12-15T03:04:05.189Z,34.06
2017-12-15T03:05:05.175Z,34.64
2017-12-15T03:06:05.145Z,34.83
2017-12-15T03:07:06.144Z,34.64
2017-12-15T03:08:05.102Z,34.64
2017-12-15T03:09:05.077Z,34.35
2017-12-15T03:10:05.052Z,34.35
2017-12-15T03:11:05.047Z,35.13
2017-12-15T03:12:05.018Z,35.03
2017-12-15T03:13:04.981Z,35.03
2017-12-15T03:14:04.955Z,35.32
2017-12-15T03:15:04.936Z,35.61
2017-12-15T03:16:04.925Z,35.90
2017-12-15T03:17:04.887Z,35.90
2017-12-15T03:18:04.863Z,35.40
2017-12-15T03:19:04.852Z,35.59
2017-12-15T03:20:04.821Z,35.69
2017-12-15T03:21:04.785Z,35.59
2017-12-15T03:22:04.781Z,35.88
2017-12-15T03:23:04.751Z,36.08
2017-12-15T03:24:04.740Z,35.88
2017-12-15T03:25:04.698Z,35.78
2017-12-15T03:26:04.662Z,36.27
2017-12-15T03:27:04.653Z,36.46
2017-12-15T03:28:04.626Z,36.66
2017-12-15T03:29:04.619Z,36.76
2017-12-15T03:30:04.598Z,36.76
2017-12-15T03:31:04.568Z,36.66
2017-12-15T03:32:04.590Z,36.76
2017-12-15T03:33:04.511Z,36.85
2017-12-15T03:34:04.487Z,36.76
2017-12-15T03:35:04.458Z,36.76
2017-12-15T03:36:04.454Z,36.85
2017-12-15T03:37:04.410Z,36.95
2017-12-15T03:38:04.393Z,36.66
2017-12-15T03:39:04.365Z,36.76
2017-12-15T03:40:04.361Z,36.85
2017-12-15T03:41:04.307Z,37.41
2017-12-15T03:42:04.297Z,37.03
2017-12-15T03:43:04.287Z,37.41
2017-12-15T03:44:04.252Z,37.13
2017-12-15T03:45:04.225Z,37.32
2017-12-15T03:46:04.204Z,37.03
2017-12-15T03:47:04.170Z,37.41
2017-12-15T03:48:04.156Z,37.81
2017-12-15T03:49:04.143Z,37.32
2017-12-15T03:50:04.107Z,37.90
2017-12-15T03:51:04.097Z,38.09
2017-12-15T03:52:04.070Z,38.78
2017-12-15T03:53:04.051Z,38.68
2017-12-15T03:54:04.029Z,38.09
2017-12-15T03:55:04.657Z,39.16
2017-12-15T03:56:03.969Z,39.45
2017-12-15T03:57:03.942Z,39.06
2017-12-15T03:58:03.914Z,39.94
2017-12-15T03:59:03.893Z,39.92
2017-12-15T04:00:03.878Z,39.94
2017-12-15T04:01:03.842Z,39.94
2017-12-15T04:02:03.832Z,40.01
2017-12-15T04:03:03.811Z,39.82
2017-12-15T04:04:03.804Z,40.40
2017-12-15T04:05:04.657Z,40.89
2017-12-15T04:06:03.738Z,40.91
2017-12-15T04:07:03.708Z,40.59
2017-12-15T04:08:03.673Z,40.40
2017-12-15T04:09:03.651Z,40.03
2017-12-15T04:10:03.634Z,40.40
2017-12-15T04:11:03.594Z,40.71
2017-12-15T04:12:03.596Z,40.61
2017-12-15T04:13:03.556Z,40.52
2017-12-15T04:14:03.553Z,40.52
2017-12-15T04:15:03.508Z,40.69
2017-12-15T04:16:03.476Z,40.31
2017-12-15T04:17:03.463Z,40.50
2017-12-15T04:18:03.447Z,40.50
2017-12-15T04:19:03.410Z,40.79
2017-12-15T04:20:03.403Z,40.40
2017-12-15T04:21:03.355Z,40.59
2017-12-15T04:22:03.348Z,40.59
2017-12-15T04:23:03.327Z,40.50
2017-12-15T04:24:03.308Z,40.69
2017-12-15T04:25:03.284Z,40.50
2017-12-15T04:26:03.252Z,40.59
2017-12-15T04:27:03.267Z,40.99
2017-12-15T04:28:03.250Z,40.89
2017-12-15T04:29:03.172Z,40.69
2017-12-15T04:30:03.133Z,40.69
2017-12-15T04:31:03.139Z,40.79
2017-12-15T04:32:03.109Z,40.77
2017-12-15T04:33:03.081Z,40.58
2017-12-15T04:34:03.039Z,40.67
2017-12-15T04:35:03.035Z,40.86
2017-12-15T04:36:03.004Z,40.28
2017-12-15T04:37:02.970Z,40.77
2017-12-15T04:38:02.943Z,41.06
2017-12-15T04:39:02.920Z,40.38
2017-12-15T04:40:02.905Z,40.77
2017-12-15T04:41:02.872Z,40.86
2017-12-15T04:42:02.860Z,40.77
2017-12-15T04:43:02.825Z,40.86
2017-12-15T04:44:02.814Z,40.77
2017-12-15T04:45:02.778Z,40.96
2017-12-15T04:46:02.770Z,40.86
2017-12-15T04:47:02.734Z,40.96
2017-12-15T04:48:02.728Z,41.16
2017-12-15T04:49:02.694Z,40.86
2017-12-15T04:50:02.654Z,40.67
2017-12-15T04:51:02.639Z,40.77
2017-12-15T04:52:02.607Z,40.96
2017-12-15T04:53:02.606Z,40.77
2017-12-15T04:54:02.566Z,40.38
2017-12-15T04:55:02.542Z,40.67
2017-12-15T04:56:02.507Z,40.38
2017-12-15T04:57:02.495Z,40.38
2017-12-15T04:58:02.477Z,40.77
2017-12-15T04:59:02.450Z,40.67
2017-12-15T05:00:02.405Z,41.55
2017-12-15T05:01:02.393Z,42.00
2017-12-15T05:02:02.380Z,42.13
2017-12-15T05:03:02.389Z,43.07
2017-12-15T05:04:02.309Z,43.17
2017-12-15T05:05:02.295Z,43.37
2017-12-15T05:06:02.275Z,43.46
2017-12-15T05:07:02.250Z,44.33
2017-12-15T05:08:02.219Z,43.95
2017-12-15T05:09:02.214Z,43.95
2017-12-15T05:10:02.226Z,43.95
2017-12-15T05:11:02.160Z,43.85
2017-12-15T05:12:02.131Z,43.85
2017-12-15T05:13:02.102Z,43.95
2017-12-15T05:14:02.092Z,43.07
2017-12-15T05:15:02.087Z,43.07
2017-12-15T05:16:02.052Z,42.40
2017-12-15T05:17:02.004Z,42.97
2017-12-15T05:18:01.965Z,42.78
2017-12-15T05:19:01.955Z,42.78
2017-12-15T05:20:01.938Z,42.10
2017-12-15T05:21:01.905Z,42.88
2017-12-15T05:22:01.906Z,42.88
2017-12-15T05:23:01.856Z,42.96
2017-12-15T05:24:01.825Z,42.76
2017-12-15T05:25:01.811Z,42.78
2017-12-15T05:26:01.821Z,42.88
2017-12-15T05:27:01.747Z,43.05
2017-12-15T05:28:01.730Z,42.86
2017-12-15T05:29:01.711Z,42.96
2017-12-15T05:30:01.691Z,42.96
2017-12-15T05:31:01.658Z,42.96
2017-12-15T05:32:01.641Z,43.15
2017-12-15T05:33:01.609Z,44.12
2017-12-15T05:34:01.602Z,43.24
2017-12-15T05:35:01.548Z,43.73
2017-12-15T05:36:01.537Z,43.15
2017-12-15T05:37:01.527Z,43.05
2017-12-15T05:38:01.495Z,43.54
2017-12-15T05:39:01.472Z,43.34
2017-12-15T05:40:01.438Z,44.02
2017-12-15T05:41:01.428Z,43.82
2017-12-15T05:42:01.394Z,43.92
2017-12-15T05:43:01.367Z,43.71
2017-12-15T05:44:01.347Z,44.31
2017-12-15T05:45:01.353Z,44.60
2017-12-15T05:46:01.268Z,44.29
2017-12-15T05:47:01.276Z,44.21
2017-12-15T05:48:01.249Z,44.67
2017-12-15T05:49:01.213Z,45.06
2017-12-15T05:50:01.187Z,44.38
2017-12-15T05:51:01.171Z,44.87
2017-12-15T05:52:01.145Z,45.64
2017-12-15T05:53:01.112Z,45.83
2017-12-15T05:54:01.081Z,45.25
2017-12-15T05:55:01.076Z,45.74
2017-12-15T05:56:01.022Z,45.83
2017-12-15T05:57:01.008Z,45.83
2017-12-15T05:58:01.000Z,45.54
2017-12-15T05:59:00.971Z,45.74
2017-12-15T06:00:00.943Z,45.54
2017-12-15T06:01:00.912Z,45.74
2017-12-15T06:02:00.886Z,45.54
2017-12-15T06:03:00.874Z,45.35
2017-12-15T06:04:00.836Z,45.42
2017-12-15T06:05:00.818Z,45.62
2017-12-15T06:06:00.796Z,45.74
2017-12-15T06:07:00.750Z,45.52
2017-12-15T06:08:00.747Z,45.81
2017-12-15T06:09:00.708Z,45.52
2017-12-15T06:10:00.690Z,45.62
2017-12-15T06:11:00.651Z,45.06
2017-12-15T06:12:00.635Z,45.62
2017-12-15T06:13:00.659Z,45.62
2017-12-15T06:14:00.567Z,45.72
2017-12-15T06:15:00.562Z,45.52
2017-12-15T06:16:00.533Z,45.42
2017-12-15T06:17:00.504Z,45.52
2017-12-15T06:18:00.482Z,45.62
2017-12-15T06:19:00.459Z,45.81
2017-12-15T06:20:00.424Z,45.52
2017-12-15T06:21:00.407Z,45.62
2017-12-15T06:22:00.399Z,45.23
2017-12-15T06:23:00.361Z,45.72
2017-12-15T06:24:00.328Z,45.62
2017-12-15T06:25:01.187Z,45.62
2017-12-15T06:26:00.300Z,45.72
2017-12-15T06:27:00.242Z,45.62
2017-12-15T06:28:00.238Z,45.59
2017-12-15T06:29:00.201Z,45.69
2017-12-15T06:30:00.188Z,45.69
2017-12-15T06:31:00.142Z,45.69
2017-12-15T06:32:00.117Z,45.89
2017-12-15T06:33:00.097Z,45.69
2017-12-15T06:34:00.077Z,45.69
2017-12-15T06:35:00.055Z,45.79
2017-12-15T06:36:00.023Z,45.79
2017-12-15T06:36:59.995Z,45.69
2017-12-15T06:38:00.696Z,45.89
2017-12-15T06:38:59.990Z,45.98
2017-12-15T06:39:59.921Z,45.98
2017-12-15T06:40:59.912Z,45.69
2017-12-15T06:41:59.888Z,45.98
2017-12-15T06:42:59.836Z,45.69
2017-12-15T06:43:59.837Z,45.89
2017-12-15T06:44:59.811Z,46.08
2017-12-15T06:45:59.783Z,46.37
2017-12-15T06:46:59.737Z,45.59
2017-12-15T06:47:59.713Z,45.69
2017-12-15T06:48:59.694Z,45.69
2017-12-15T06:49:59.670Z,45.11
2017-12-15T06:50:59.645Z,45.40
2017-12-15T06:51:59.616Z,45.40
2017-12-15T06:52:59.606Z,44.92
2017-12-15T06:53:59.578Z,44.82
2017-12-15T06:54:59.537Z,45.01
2017-12-15T06:55:59.531Z,45.01
2017-12-15T06:56:59.480Z,45.40
2017-12-15T06:57:59.447Z,45.01
2017-12-15T06:58:59.431Z,45.79
2017-12-15T06:59:59.410Z,45.01
2017-12-15T07:00:59.399Z,45.59
2017-12-15T07:01:59.355Z,45.50
2017-12-15T07:02:59.318Z,45.59
2017-12-15T07:03:59.325Z,45.50
2017-12-15T07:04:59.283Z,45.50
2017-12-15T07:05:59.254Z,45.21
2017-12-15T07:06:59.232Z,45.21
2017-12-15T07:07:59.190Z,45.40
2017-12-15T07:08:59.170Z,45.40
2017-12-15T07:09:59.177Z,45.59
2017-12-15T07:10:59.164Z,45.69
2017-12-15T07:11:59.117Z,45.50
2017-12-15T07:12:59.087Z,45.50
2017-12-15T07:13:59.051Z,45.79
2017-12-15T07:14:59.044Z,45.98
2017-12-15T07:15:58.984Z,45.79
2017-12-15T07:16:58.989Z,45.89
2017-12-15T07:17:58.981Z,45.67
2017-12-15T07:18:58.933Z,45.86
2017-12-15T07:19:58.897Z,46.15
2017-12-15T07:20:58.885Z,45.57
2017-12-15T07:21:58.849Z,45.79
2017-12-15T07:22:58.840Z,45.86
2017-12-15T07:23:58.805Z,45.86
2017-12-15T07:24:58.767Z,46.15
2017-12-15T07:25:58.757Z,46.44
2017-12-15T07:26:58.716Z,45.86
2017-12-15T07:27:58.691Z,46.34
2017-12-15T07:28:58.654Z,46.44
2017-12-15T07:29:58.643Z,46.34
2017-12-15T07:30:58.613Z,46.54
2017-12-15T07:31:58.583Z,46.54
2017-12-15T07:32:58.563Z,46.44
2017-12-15T07:33:58.530Z,46.54
2017-12-15T07:34:58.505Z,46.54
2017-12-15T07:35:58.493Z,46.92
2017-12-15T07:36:58.460Z,47.12
2017-12-15T07:37:58.427Z,47.02
2017-12-15T07:38:58.420Z,47.02
2017-12-15T07:39:58.392Z,46.54
2017-12-15T07:40:58.351Z,46.73
2017-12-15T07:41:58.328Z,46.73
2017-12-15T07:42:58.304Z,46.64
2017-12-15T07:43:58.269Z,46.73
2017-12-15T07:44:58.251Z,46.25
2017-12-15T07:45:58.223Z,46.44
2017-12-15T07:46:58.194Z,46.64
2017-12-15T07:47:58.206Z,46.06
2017-12-15T07:48:58.150Z,46.54
2017-12-15T07:49:58.121Z,46.73
2017-12-15T07:50:58.092Z,46.64
2017-12-15T07:51:58.081Z,46.34
2017-12-15T07:52:58.063Z,46.34
2017-12-15T07:53:58.017Z,46.25
2017-12-15T07:54:58.007Z,46.73
2017-12-15T07:55:57.964Z,46.54
2017-12-15T07:56:57.940Z,46.54
2017-12-15T07:57:57.925Z,46.73
2017-12-15T07:58:57.887Z,46.15
2017-12-15T07:59:57.865Z,46.44
2017-12-15T08:00:57.830Z,45.96
2017-12-15T08:01:57.804Z,46.54
2017-12-15T08:02:57.783Z,46.15
2017-12-15T08:03:57.752Z,46.15
2017-12-15T08:04:57.736Z,46.25
2017-12-15T08:05:57.752Z,46.15
2017-12-15T08:06:58.218Z,45.57
2017-12-15T08:07:57.667Z,45.86
2017-12-15T08:08:57.626Z,45.67
2017-12-15T08:09:57.601Z,45.96
2017-12-15T08:10:57.584Z,45.76
2017-12-15T08:11:57.545Z,45.76
2017-12-15T08:12:57.528Z,45.67
2017-12-15T08:13:57.519Z,45.86
2017-12-15T08:14:57.477Z,46.34
2017-12-15T08:15:57.446Z,46.44
2017-12-15T08:16:57.419Z,46.73
2017-12-15T08:17:57.397Z,46.64
2017-12-15T08:18:57.382Z,46.64
2017-12-15T08:19:57.343Z,46.25
2017-12-15T08:20:57.335Z,46.44
2017-12-15T08:21:57.284Z,45.86
2017-12-15T08:22:57.267Z,46.06
2017-12-15T08:23:57.253Z,45.86
2017-12-15T08:24:57.227Z,46.15
2017-12-15T08:25:57.175Z,46.06
2017-12-15T08:26:57.164Z,45.86
2017-12-15T08:27:57.133Z,45.86
2017-12-15T08:28:57.103Z,45.67
2017-12-15T08:29:57.102Z,45.67
2017-12-15T08:30:57.071Z,45.67
2017-12-15T08:31:57.052Z,45.38
2017-12-15T08:32:57.009Z,45.67
2017-12-15T08:33:56.975Z,45.57
2017-12-15T08:34:56.979Z,45.38
2017-12-15T08:35:56.935Z,45.67
2017-12-15T08:36:56.900Z,45.67
2017-12-15T08:37:56.879Z,45.86
2017-12-15T08:38:56.850Z,45.86
2017-12-15T08:39:56.832Z,45.67
2017-12-15T08:40:57.722Z,45.86
2017-12-15T08:41:56.774Z,45.67
2017-12-15T08:42:56.746Z,45.38
2017-12-15T08:43:56.723Z,45.57
2017-12-15T08:44:56.692Z,45.48
2017-12-15T08:45:56.662Z,45.67
2017-12-15T08:46:56.660Z,45.31
2017-12-15T08:47:56.625Z,45.76
2017-12-15T08:48:56.592Z,45.48
2017-12-15T08:49:56.562Z,45.67
2017-12-15T08:50:56.557Z,45.50
2017-12-15T08:51:56.526Z,45.67
2017-12-15T08:52:56.479Z,45.86
2017-12-15T08:53:56.482Z,45.98
2017-12-15T08:54:56.444Z,45.79
2017-12-15T08:55:56.413Z,45.59
2017-12-15T08:56:56.388Z,45.79
2017-12-15T08:57:56.358Z,45.69
2017-12-15T08:58:56.334Z,45.89
2017-12-15T08:59:56.307Z,45.59
2017-12-15T09:00:56.329Z,45.79
2017-12-15T09:01:56.257Z,45.98
2017-12-15T09:02:56.231Z,45.98
2017-12-15T09:03:56.191Z,45.98
2017-12-15T09:04:56.194Z,45.98
2017-12-15T09:05:56.155Z,45.89
2017-12-15T09:06:56.164Z,45.98
2017-12-15T09:07:56.120Z,45.98
2017-12-15T09:08:56.083Z,45.89
2017-12-15T09:09:56.043Z,45.89
2017-12-15T09:10:56.025Z,46.08
2017-12-15T09:11:56.000Z,46.27
2017-12-15T09:12:55.974Z,46.08
2017-12-15T09:13:56.729Z,45.98
2017-12-15T09:14:55.991Z,45.69
2017-12-15T09:15:55.898Z,45.98
2017-12-15T09:16:55.877Z,46.37
2017-12-15T09:17:55.849Z,45.98
2017-12-15T09:18:55.836Z,46.17
2017-12-15T09:19:55.785Z,46.47
2017-12-15T09:20:55.773Z,46.56
2017-12-15T09:21:55.760Z,46.56
2017-12-15T09:22:55.714Z,46.56
2017-12-15T09:23:55.682Z,46.37
2017-12-15T09:24:55.684Z,46.75
2017-12-15T09:25:55.638Z,46.47
2017-12-15T09:26:55.622Z,46.75
2017-12-15T09:27:55.577Z,46.08
2017-12-15T09:28:55.563Z,46.37
2017-12-15T09:29:55.549Z,46.17
2017-12-15T09:30:55.490Z,46.30
2017-12-15T09:31:55.500Z,46.39
2017-12-15T09:32:55.475Z,46.78
2017-12-15T09:33:55.429Z,46.68
2017-12-15T09:34:55.408Z,46.00
2017-12-15T09:35:55.384Z,46.39
2017-12-15T09:36:55.353Z,45.81
2017-12-15T09:37:55.336Z,46.00
2017-12-15T09:38:55.317Z,46.00
2017-12-15T09:39:55.277Z,45.74
2017-12-15T09:40:55.253Z,46.49
2017-12-15T09:41:55.229Z,46.58
2017-12-15T09:42:55.196Z,46.42
2017-12-15T09:43:55.169Z,46.90
2017-12-15T09:44:55.148Z,46.22
2017-12-15T09:45:55.114Z,46.32
2017-12-15T09:46:55.095Z,46.22
2017-12-15T09:47:55.062Z,46.03
2017-12-15T09:48:55.044Z,46.70
2017-12-15T09:49:55.043Z,46.32
2017-12-15T09:50:54.994Z,46.32
2017-12-15T09:51:54.990Z,46.51
2017-12-15T09:52:54.936Z,46.32
2017-12-15T09:53:54.927Z,45.64
2017-12-15T09:54:54.891Z,46.03
2017-12-15T09:55:54.857Z,45.66
2017-12-15T09:56:54.847Z,45.57
2017-12-15T09:57:54.839Z,45.95
2017-12-15T09:58:54.812Z,45.76
2017-12-15T09:59:54.763Z,45.95
2017-12-15T10:00:54.765Z,45.57
2017-12-15T10:01:54.723Z,45.66
2017-12-15T10:02:54.691Z,45.57
2017-12-15T10:03:54.659Z,45.86
2017-12-15T10:04:54.637Z,45.76
2017-12-15T10:05:54.634Z,45.88
2017-12-15T10:06:54.601Z,45.68
2017-12-15T10:07:54.582Z,45.10
2017-12-15T10:08:54.558Z,45.10
2017-12-15T10:09:54.514Z,45.68
2017-12-15T10:10:54.498Z,45.68
2017-12-15T10:11:54.476Z,44.62
2017-12-15T10:12:54.433Z,44.72
2017-12-15T10:13:54.427Z,44.33
2017-12-15T10:14:54.383Z,44.16
2017-12-15T10:15:54.366Z,44.06
2017-12-15T10:16:54.331Z,43.77
2017-12-15T10:17:54.315Z,43.48
2017-12-15T10:18:54.287Z,43.38
2017-12-15T10:19:54.280Z,43.09
2017-12-15T10:20:54.243Z,43.29
2017-12-15T10:21:54.219Z,43.09
2017-12-15T10:22:54.186Z,42.80
2017-12-15T10:23:54.184Z,42.63
2017-12-15T10:24:54.153Z,42.82
2017-12-15T10:25:54.128Z,42.72
2017-12-15T10:26:54.090Z,42.14
2017-12-15T10:27:54.065Z,42.72
2017-12-15T10:28:54.039Z,43.02
2017-12-15T10:29:54.025Z,42.75
2017-12-15T10:30:54.002Z,43.21
2017-12-15T10:31:53.967Z,42.85
2017-12-15T10:32:53.936Z,43.04
2017-12-15T10:33:53.929Z,42.36
2017-12-15T10:34:53.886Z,42.86
2017-12-15T10:35:53.869Z,42.86
2017-12-15T10:36:53.842Z,42.77
2017-12-15T10:37:53.832Z,41.89
2017-12-15T10:38:53.795Z,41.80
2017-12-15T10:39:53.771Z,41.80
2017-12-15T10:40:53.744Z,41.43
2017-12-15T10:41:53.708Z,41.82
2017-12-15T10:42:53.703Z,41.82
2017-12-15T10:43:53.671Z,40.75
2017-12-15T10:44:53.637Z,41.14
2017-12-15T10:45:53.637Z,39.59
2017-12-15T10:46:53.615Z,40.66
2017-12-15T10:47:53.561Z,40.09
2017-12-15T10:48:53.557Z,40.00
2017-12-15T10:49:53.534Z,40.66
2017-12-15T10:50:53.523Z,40.77
2017-12-15T10:51:53.470Z,40.67
2017-12-15T10:52:53.451Z,40.87
2017-12-15T10:53:53.414Z,41.16
2017-12-15T10:54:53.401Z,40.77
2017-12-15T10:55:53.372Z,39.90
2017-12-15T10:56:53.348Z,40.58
2017-12-15T10:57:53.317Z,39.90
2017-12-15T10:58:53.325Z,38.64
2017-12-15T10:59:53.290Z,38.46
2017-12-15T11:00:53.245Z,37.88
2017-12-15T11:01:53.225Z,38.65
2017-12-15T11:02:53.202Z,38.75
2017-12-15T11:03:53.186Z,38.37
2017-12-15T11:04:53.144Z,38.37
2017-12-15T11:05:53.131Z,38.39
2017-12-15T11:06:53.088Z,38.65
2017-12-15T11:07:53.084Z,37.99
2017-12-15T11:08:53.062Z,38.29
2017-12-15T11:09:53.034Z,37.41
2017-12-15T11:10:53.057Z,37.80
2017-12-15T11:11:52.997Z,37.99
2017-12-15T11:12:53.007Z,37.51
2017-12-15T11:13:52.955Z,37.51
2017-12-15T11:14:52.926Z,37.12
2017-12-15T11:15:52.908Z,37.24
2017-12-15T11:16:52.868Z,37.04
2017-12-15T11:17:52.837Z,35.88
2017-12-15T11:18:52.870Z,35.78
2017-12-15T11:19:52.812Z,35.88
2017-12-15T11:20:52.759Z,35.50
2017-12-15T11:21:52.749Z,35.88
2017-12-15T11:22:52.752Z,35.89
2017-12-15T11:23:52.696Z,35.99
2017-12-15T11:24:52.692Z,35.78
2017-12-15T11:25:52.668Z,35.89
2017-12-15T11:26:52.701Z,36.28
2017-12-15T11:27:52.658Z,36.67
2017-12-15T11:28:52.580Z,35.80
2017-12-15T11:29:52.574Z,36.18
2017-12-15T11:30:52.533Z,36.38
2017-12-15T11:31:52.524Z,37.06
2017-12-15T11:32:52.480Z,37.06
2017-12-15T11:33:52.469Z,37.35
2017-12-15T11:34:52.445Z,37.26
2017-12-15T11:35:52.408Z,37.35
2017-12-15T11:36:52.438Z,37.16
2017-12-15T11:37:52.369Z,37.35
2017-12-15T11:38:52.365Z,37.35
2017-12-15T11:39:52.309Z,37.54
2017-12-15T11:40:52.299Z,37.18
2017-12-15T11:41:52.274Z,37.64
2017-12-15T11:42:52.252Z,37.37
2017-12-15T11:43:52.223Z,37.16
2017-12-15T11:44:52.193Z,37.37
2017-12-15T11:45:52.179Z,37.08
2017-12-15T11:46:52.208Z,37.37
2017-12-15T11:47:52.134Z,37.56
2017-12-15T11:48:52.101Z,37.27
2017-12-15T11:49:52.088Z,37.27
2017-12-15T11:50:52.061Z,37.37
2017-12-15T11:51:52.039Z,36.98
2017-12-15T11:52:52.004Z,37.08
2017-12-15T11:53:51.980Z,36.90
2017-12-15T11:54:51.983Z,36.71
2017-12-15T11:55:51.979Z,36.80
2017-12-15T11:56:51.916Z,35.93
2017-12-15T11:57:51.899Z,36.61
2017-12-15T11:58:51.868Z,37.00
2017-12-15T11:59:51.858Z,37.10
2017-12-15T12:00:51.816Z,36.51
2017-12-15T12:01:51.815Z,36.61
2017-12-15T12:02:51.795Z,36.72
2017-12-15T12:03:51.771Z,35.85
2017-12-15T12:04:51.739Z,36.04
2017-12-15T12:05:51.698Z,36.14
2017-12-15T12:06:51.691Z,36.14
2017-12-15T12:07:51.680Z,36.14
2017-12-15T12:08:51.638Z,35.94
2017-12-15T12:09:51.610Z,35.65
2017-12-15T12:10:51.615Z,35.57
2017-12-15T12:11:51.581Z,35.57
2017-12-15T12:12:51.565Z,35.08
2017-12-15T12:13:51.542Z,35.38
2017-12-15T12:14:51.520Z,35.28
2017-12-15T12:15:51.481Z,35.28
2017-12-15T12:16:51.475Z,35.38
2017-12-15T12:17:51.437Z,35.28
2017-12-15T12:18:51.407Z,35.47
2017-12-15T12:19:51.428Z,34.40
2017-12-15T12:20:51.365Z,34.69
2017-12-15T12:21:51.339Z,35.47
2017-12-15T12:22:51.351Z,34.11
2017-12-15T12:23:51.309Z,34.22
2017-12-15T12:24:51.287Z,34.03
2017-12-15T12:25:51.259Z,33.83
2017-12-15T12:26:51.777Z,34.22
2017-12-15T12:27:51.222Z,34.52
2017-12-15T12:28:51.175Z,33.73
2017-12-15T12:29:51.171Z,33.17
2017-12-15T12:30:51.164Z,33.56
2017-12-15T12:31:51.114Z,33.56
2017-12-15T12:32:51.106Z,33.26
2017-12-15T12:33:51.096Z,32.39
2017-12-15T12:34:51.048Z,32.68
2017-12-15T12:35:51.039Z,32.87
2017-12-15T12:36:51.003Z,32.58
2017-12-15T12:37:50.964Z,32.68
2017-12-15T12:38:50.977Z,32.39
2017-12-15T12:39:50.929Z,32.48
2017-12-15T12:40:50.933Z,32.48
2017-12-15T12:41:50.878Z,32.58
2017-12-15T12:42:50.865Z,32.58
2017-12-15T12:43:50.858Z,33.36
2017-12-15T12:44:50.841Z,33.65
2017-12-15T12:45:51.774Z,33.56
2017-12-15T12:46:50.764Z,33.36
2017-12-15T12:47:50.768Z,33.77
2017-12-15T12:48:50.727Z,33.09
2017-12-15T12:49:50.702Z,32.40
2017-12-15T12:50:50.701Z,31.23
2017-12-15T12:51:50.662Z,32.87